F/V Kab David 3 — FHZU — position and weather

sailwx.info

Track history (hours):
 
Tides and Currents Weather Stations Pressure Air Temp Water Temp Dewpoint Dewpoint Depression Visibility Wind Speed Wind Dir Waves Ship Positions

F/V Kab David 3

Last reported at 2018-Feb-23 02:08 UTC. Time now 2018-Feb-23 10:56 UTC.
Position N 47°08' W 002°43'.

Length 15 m.

Type: Other ship. MMSI: 228813000.

Date/timePositionNaut miles runAvg speedWind from/ knotsBaromVisibWave heightAir tempDewpointWater temp
2018-Feb-23 02:08N 47°08' W 002°43'1 9.0
2018-Feb-23 01:59N 47°09' W 002°42'5 9.1
2018-Feb-23 01:29N 47°13' W 002°38'4 9.1
2018-Feb-23 01:00N 47°16' W 002°35'3 6.3
2018-Feb-23 00:30N 47°18' W 002°31'0 0.0
2018-Feb-23 00:00N 47°18' W 002°31'0 0.0
2018-Feb-22 23:30N 47°18' W 002°31'0 0.0
2018-Feb-22 23:00N 47°18' W 002°31'0 0.0
2018-Feb-22 22:30N 47°18' W 002°31'0 0.0
2018-Feb-22 22:00N 47°18' W 002°31'0 0.0
2018-Feb-22 21:30N 47°18' W 002°31'0 0.0
2018-Feb-22 21:00N 47°18' W 002°31'0 0.0
2018-Feb-22 20:30N 47°18' W 002°31'0 0.0
2018-Feb-22 20:00N 47°18' W 002°31'0 0.0
2018-Feb-22 19:29N 47°18' W 002°31'0 0.0
2018-Feb-22 19:00N 47°18' W 002°31'0 0.0
2018-Feb-22 18:30N 47°18' W 002°31'0 0.0
2018-Feb-22 18:00N 47°18' W 002°31'0 0.0
2018-Feb-22 17:30N 47°18' W 002°31'0 0.0
2018-Feb-22 16:59N 47°18' W 002°31'0 0.0
2018-Feb-22 16:30N 47°18' W 002°31'0 0.0
2018-Feb-22 16:00N 47°18' W 002°31'0 0.0
2018-Feb-22 15:30N 47°18' W 002°31'0 0.0
2018-Feb-22 15:00N 47°18' W 002°31'0 0.0
2018-Feb-22 14:28N 47°18' W 002°31'0 0.1
2018-Feb-22 14:00N 47°18' W 002°31'13 1.1
2018-Feb-22 01:54N 47°07' W 002°42'4 9.2
2018-Feb-22 01:30N 47°11' W 002°39'5 9.1
2018-Feb-22 01:00N 47°15' W 002°36'5 9.3
2018-Feb-22 00:30N 47°19' W 002°33'1 2.7
2018-Feb-22 00:00N 47°18' W 002°31'0 0.0
2018-Feb-21 23:30N 47°18' W 002°31'0 0.0
2018-Feb-21 23:00N 47°18' W 002°31'0 0.0
2018-Feb-21 22:30N 47°18' W 002°31'0 0.0
2018-Feb-21 22:00N 47°18' W 002°31'0 0.0
2018-Feb-21 21:30N 47°18' W 002°31'0 0.0
2018-Feb-21 21:00N 47°18' W 002°31'0 0.0
2018-Feb-21 20:30N 47°18' W 002°31'0 0.0
2018-Feb-21 19:58N 47°18' W 002°31'0 0.0
2018-Feb-21 19:30N 47°18' W 002°31'0 0.0
2018-Feb-21 19:00N 47°18' W 002°31'0 0.0
2018-Feb-21 18:30N 47°18' W 002°31'0 0.0
2018-Feb-21 18:00N 47°18' W 002°31'0 0.0
2018-Feb-21 17:30N 47°18' W 002°31'0 0.0
2018-Feb-21 17:00N 47°18' W 002°31'0 0.0
2018-Feb-21 16:30N 47°18' W 002°31'0 0.0
2018-Feb-21 16:00N 47°18' W 002°31'0 0.1
2018-Feb-21 15:29N 47°18' W 002°31'12 0.9
2018-Feb-21 01:50N 47°09' W 002°42'3 9.4
2018-Feb-21 01:29N 47°11' W 002°39'5 9.6
2018-Feb-21 01:00N 47°15' W 002°36'4 8.8
2018-Feb-21 00:30N 47°19' W 002°31'1 1.9
2018-Feb-21 00:00N 47°18' W 002°31'0 0.0
2018-Feb-20 23:30N 47°18' W 002°31'0 0.0
2018-Feb-20 22:59N 47°18' W 002°31'0 0.0
2018-Feb-20 22:28N 47°18' W 002°31'0 0.0
2018-Feb-20 22:00N 47°18' W 002°31'0 0.0
2018-Feb-20 21:30N 47°18' W 002°31'0 0.0
2018-Feb-20 21:00N 47°18' W 002°31'0 0.0
2018-Feb-20 20:29N 47°18' W 002°31'0 0.0
2018-Feb-20 20:00N 47°18' W 002°31'0 0.0
2018-Feb-20 19:30N 47°18' W 002°31'0 0.0
2018-Feb-20 19:00N 47°18' W 002°31'0 0.0
2018-Feb-20 18:30N 47°18' W 002°31'0 0.0
2018-Feb-20 17:59N 47°18' W 002°31'0 0.0
2018-Feb-20 17:29N 47°18' W 002°31'0 0.0
2018-Feb-20 16:56N 47°18' W 002°31'0 0.0
2018-Feb-20 15:57N 47°18' W 002°31'0 0.0
2018-Feb-20 15:30N 47°18' W 002°31'0 0.0
2018-Feb-20 14:59N 47°18' W 002°31'12 0.9
2018-Feb-20 01:48N 47°08' W 002°41'3 9.2
2018-Feb-20 01:30N 47°11' W 002°39'5 9.3
2018-Feb-20 00:58N 47°15' W 002°36'5 9.5
2018-Feb-20 00:29N 47°19' W 002°32'1 2.6
2018-Feb-20 00:00N 47°18' W 002°31'0 0.0
2018-Feb-19 23:30N 47°18' W 002°31'0 0.0
2018-Feb-19 23:00N 47°18' W 002°31'0 0.0
2018-Feb-19 22:29N 47°18' W 002°31'0 0.0
2018-Feb-19 21:59N 47°18' W 002°31'0 0.0
2018-Feb-19 21:28N 47°18' W 002°31'0 0.0
2018-Feb-19 21:00N 47°18' W 002°31'0 0.0
2018-Feb-19 20:29N 47°18' W 002°31'0 0.0
2018-Feb-19 20:00N 47°18' W 002°31'0 0.0
2018-Feb-19 19:30N 47°18' W 002°31'0 0.0
2018-Feb-19 19:00N 47°18' W 002°31'0 0.0
2018-Feb-19 18:29N 47°18' W 002°31'0 0.0
2018-Feb-19 18:00N 47°18' W 002°31'0 0.0
2018-Feb-19 17:30N 47°18' W 002°31'0 0.0
2018-Feb-19 17:00N 47°18' W 002°31'0 0.0
2018-Feb-19 16:30N 47°18' W 002°31'0 0.0
2018-Feb-19 16:00N 47°18' W 002°31'0 0.0
2018-Feb-19 15:28N 47°18' W 002°31'0 0.0
2018-Feb-19 14:59N 47°18' W 002°31'0 0.0
2018-Feb-19 14:30N 47°18' W 002°31'0 0.1
2018-Feb-19 14:00N 47°18' W 002°31'11 0.9
2018-Feb-19 01:45N 47°09' W 002°41'2 8.4
2018-Feb-19 01:29N 47°11' W 002°39'4 9.0
2018-Feb-19 01:00N 47°15' W 002°36'5 9.1
2018-Feb-19 00:30N 47°19' W 002°32'1 2.5
2018-Feb-19 00:00N 47°18' W 002°31'0 0.0
2018-Feb-18 23:30N 47°18' W 002°31'0 0.0
2018-Feb-18 23:00N 47°18' W 002°31'0 0.0
2018-Feb-18 22:29N 47°18' W 002°31'0 0.0
2018-Feb-18 22:00N 47°18' W 002°31'0 0.0
2018-Feb-18 21:30N 47°18' W 002°31'0 0.0
2018-Feb-18 20:59N 47°18' W 002°31'0 0.0
2018-Feb-18 20:30N 47°18' W 002°31'0 0.0
2018-Feb-17 23:45N 47°18' W 002°31'0 0.0
2018-Feb-17 23:11N 47°18' W 002°31'0 0.0
2018-Feb-17 22:58N 47°18' W 002°31'0 0.0
2018-Feb-17 22:30N 47°18' W 002°31'0 0.0
2018-Feb-17 21:58N 47°18' W 002°31'0 0.0
2018-Feb-17 21:30N 47°18' W 002°31'0 0.0
2018-Feb-17 21:00N 47°18' W 002°31'0 0.0
2018-Feb-17 20:29N 47°18' W 002°31'0 0.0
2018-Feb-17 20:00N 47°18' W 002°31'0 0.0
2018-Feb-17 19:29N 47°18' W 002°31'0 0.0
2018-Feb-17 19:00N 47°18' W 002°31'0 0.0
2018-Feb-17 18:27N 47°18' W 002°31'0 0.0
2018-Feb-17 17:58N 47°18' W 002°31'0 0.0
2018-Feb-17 17:29N 47°18' W 002°31'0 0.0
2018-Feb-17 17:00N 47°18' W 002°31'0 0.0
2018-Feb-17 16:30N 47°18' W 002°31'0 0.0
2018-Feb-17 16:00N 47°18' W 002°31'0 0.0
2018-Feb-17 15:30N 47°18' W 002°31'0 0.0
2018-Feb-17 15:00N 47°18' W 002°31'0 0.0
2018-Feb-17 14:30N 47°18' W 002°31'0 0.1
2018-Feb-17 14:00N 47°18' W 002°31'0 0.0
2018-Feb-16 22:47N 47°18' W 002°31'0 0.0
2018-Feb-16 22:29N 47°18' W 002°31'0 0.0
2018-Feb-16 22:00N 47°18' W 002°31'0 0.0
2018-Feb-16 21:30N 47°18' W 002°31'0 0.0
2018-Feb-16 21:00N 47°18' W 002°31'0 0.0
2018-Feb-16 20:30N 47°18' W 002°31'0 0.0
2018-Feb-16 20:00N 47°18' W 002°31'0 0.9
2018-Feb-16 19:30N 47°18' W 002°31'12 7.8
2018-Feb-16 18:02N 47°08' W 002°38'16 1.7
2018-Feb-16 09:07N 46°55' W 002°50'0 0.5
2018-Feb-16 08:45N 46°54' W 002°50'0 0.5
2018-Feb-16 08:08N 46°54' W 002°50'0 0.3
2018-Feb-16 06:44N 46°54' W 002°50'0 0.7
2018-Feb-16 06:30N 46°54' W 002°49'2 2.0
2018-Feb-16 05:25N 46°54' W 002°46'0 0.6
2018-Feb-16 04:35N 46°54' W 002°46'10 4.6
2018-Feb-16 02:31N 47°03' W 002°40'1 8.8
2018-Feb-16 02:27N 47°03' W 002°40'4 8.8
2018-Feb-16 01:59N 47°07' W 002°38'4 8.5
2018-Feb-16 01:29N 47°11' W 002°37'4 8.6
2018-Feb-16 01:00N 47°15' W 002°35'4 8.0
2018-Feb-16 00:30N 47°19' W 002°32'1 2.0
2018-Feb-16 00:00N 47°18' W 002°31'0 0.0
2018-Feb-15 23:30N 47°18' W 002°31'0 0.0
2018-Feb-15 23:00N 47°18' W 002°31'0 0.0
2018-Feb-15 22:30N 47°18' W 002°31'0 0.0
2018-Feb-15 22:00N 47°18' W 002°31'0 0.0
2018-Feb-15 21:30N 47°18' W 002°31'0 0.0
2018-Feb-15 21:00N 47°18' W 002°31'0 0.0
2018-Feb-15 20:30N 47°18' W 002°31'0 0.0
2018-Feb-15 20:00N 47°18' W 002°31'0 0.0
2018-Feb-15 19:30N 47°18' W 002°31'0 0.0
2018-Feb-15 19:00N 47°18' W 002°31'0 0.0
2018-Feb-15 18:30N 47°18' W 002°31'0 0.0
2018-Feb-15 18:00N 47°18' W 002°31'0 0.0
2018-Feb-15 17:30N 47°18' W 002°31'0 0.0
2018-Feb-15 17:00N 47°18' W 002°31'0 0.0
2018-Feb-15 16:29N 47°18' W 002°31'0 0.0
2018-Feb-15 16:00N 47°18' W 002°31'0 0.0
2018-Feb-15 15:30N 47°18' W 002°31'0 0.0
2018-Feb-15 15:00N 47°18' W 002°31'0 0.0
2018-Feb-15 14:30N 47°18' W 002°31'6 6.1
2018-Feb-15 13:30N 47°13' W 002°36'5 9.5
2018-Feb-15 12:59N 47°08' W 002°38'5 0.4
2018-Feb-15 01:47N 47°11' W 002°43'2 7.9
2018-Feb-15 01:29N 47°13' W 002°41'4 8.2
2018-Feb-15 00:58N 47°16' W 002°37'4 8.0
2018-Feb-15 00:31N 47°18' W 002°33'9 0.2
2018-Feb-13 13:37N 47°12' W 002°41'2 8.3
2018-Feb-13 13:25N 47°13' W 002°40'5 8.8
2018-Feb-13 12:54N 47°17' W 002°36'3 3.3
2018-Feb-13 11:54N 47°18' W 002°31'0 0.0
2018-Feb-13 11:02N 47°18' W 002°31'0 0.0
2018-Feb-13 05:13N 47°18' W 002°31'0 0.0
2018-Feb-13 05:00N 47°18' W 002°31'0 0.0
2018-Feb-13 04:29N 47°18' W 002°31'0 0.0
2018-Feb-13 04:00N 47°18' W 002°31'0 0.0
2018-Feb-13 03:29N 47°18' W 002°31'0 0.0
2018-Feb-13 02:59N 47°18' W 002°31'0 0.0
2018-Feb-13 02:29N 47°18' W 002°31'  
Track history (hours):
 
Tides and Currents Weather Stations Pressure Air Temp Water Temp Dewpoint Dewpoint Depression Visibility Wind Speed Wind Dir Waves Ship Positions

F/V Kab David 3

Last reported at 2018-Feb-23 02:08 UTC. Time now 2018-Feb-23 10:56 UTC.
Position N 47°08' W 002°43'.

Length 15 m.

Type: Other ship. MMSI: 228813000.

Date/timePositionNaut miles runAvg speedWind from/ knotsBaromVisibWave heightAir tempDewpointWater temp
2018-Feb-23 02:08N 47°08' W 002°43'1 9.0
2018-Feb-23 01:59N 47°09' W 002°42'5 9.1
2018-Feb-23 01:29N 47°13' W 002°38'4 9.1
2018-Feb-23 01:00N 47°16' W 002°35'3 6.3
2018-Feb-23 00:30N 47°18' W 002°31'0 0.0
2018-Feb-23 00:00N 47°18' W 002°31'0 0.0
2018-Feb-22 23:30N 47°18' W 002°31'0 0.0
2018-Feb-22 23:00N 47°18' W 002°31'0 0.0
2018-Feb-22 22:30N 47°18' W 002°31'0 0.0
2018-Feb-22 22:00N 47°18' W 002°31'0 0.0
2018-Feb-22 21:30N 47°18' W 002°31'0 0.0
2018-Feb-22 21:00N 47°18' W 002°31'0 0.0
2018-Feb-22 20:30N 47°18' W 002°31'0 0.0
2018-Feb-22 20:00N 47°18' W 002°31'0 0.0
2018-Feb-22 19:29N 47°18' W 002°31'0 0.0
2018-Feb-22 19:00N 47°18' W 002°31'0 0.0
2018-Feb-22 18:30N 47°18' W 002°31'0 0.0
2018-Feb-22 18:00N 47°18' W 002°31'0 0.0
2018-Feb-22 17:30N 47°18' W 002°31'0 0.0
2018-Feb-22 16:59N 47°18' W 002°31'0 0.0
2018-Feb-22 16:30N 47°18' W 002°31'0 0.0
2018-Feb-22 16:00N 47°18' W 002°31'0 0.0
2018-Feb-22 15:30N 47°18' W 002°31'0 0.0
2018-Feb-22 15:00N 47°18' W 002°31'0 0.0
2018-Feb-22 14:28N 47°18' W 002°31'0 0.1
2018-Feb-22 14:00N 47°18' W 002°31'13 1.1
2018-Feb-22 01:54N 47°07' W 002°42'4 9.2
2018-Feb-22 01:30N 47°11' W 002°39'5 9.1
2018-Feb-22 01:00N 47°15' W 002°36'5 9.3
2018-Feb-22 00:30N 47°19' W 002°33'1 2.7
2018-Feb-22 00:00N 47°18' W 002°31'0 0.0
2018-Feb-21 23:30N 47°18' W 002°31'0 0.0
2018-Feb-21 23:00N 47°18' W 002°31'0 0.0
2018-Feb-21 22:30N 47°18' W 002°31'0 0.0
2018-Feb-21 22:00N 47°18' W 002°31'0 0.0
2018-Feb-21 21:30N 47°18' W 002°31'0 0.0
2018-Feb-21 21:00N 47°18' W 002°31'0 0.0
2018-Feb-21 20:30N 47°18' W 002°31'0 0.0
2018-Feb-21 19:58N 47°18' W 002°31'0 0.0
2018-Feb-21 19:30N 47°18' W 002°31'0 0.0
2018-Feb-21 19:00N 47°18' W 002°31'0 0.0
2018-Feb-21 18:30N 47°18' W 002°31'0 0.0
2018-Feb-21 18:00N 47°18' W 002°31'0 0.0
2018-Feb-21 17:30N 47°18' W 002°31'0 0.0
2018-Feb-21 17:00N 47°18' W 002°31'0 0.0
2018-Feb-21 16:30N 47°18' W 002°31'0 0.0
2018-Feb-21 16:00N 47°18' W 002°31'0 0.1
2018-Feb-21 15:29N 47°18' W 002°31'12 0.9
2018-Feb-21 01:50N 47°09' W 002°42'3 9.4
2018-Feb-21 01:29N 47°11' W 002°39'5 9.6
2018-Feb-21 01:00N 47°15' W 002°36'4 8.8
2018-Feb-21 00:30N 47°19' W 002°31'1 1.9
2018-Feb-21 00:00N 47°18' W 002°31'0 0.0
2018-Feb-20 23:30N 47°18' W 002°31'0 0.0
2018-Feb-20 22:59N 47°18' W 002°31'0 0.0
2018-Feb-20 22:28N 47°18' W 002°31'0 0.0
2018-Feb-20 22:00N 47°18' W 002°31'0 0.0
2018-Feb-20 21:30N 47°18' W 002°31'0 0.0
2018-Feb-20 21:00N 47°18' W 002°31'0 0.0
2018-Feb-20 20:29N 47°18' W 002°31'0 0.0
2018-Feb-20 20:00N 47°18' W 002°31'0 0.0
2018-Feb-20 19:30N 47°18' W 002°31'0 0.0
2018-Feb-20 19:00N 47°18' W 002°31'0 0.0
2018-Feb-20 18:30N 47°18' W 002°31'0 0.0
2018-Feb-20 17:59N 47°18' W 002°31'0 0.0
2018-Feb-20 17:29N 47°18' W 002°31'0 0.0
2018-Feb-20 16:56N 47°18' W 002°31'0 0.0
2018-Feb-20 15:57N 47°18' W 002°31'0 0.0
2018-Feb-20 15:30N 47°18' W 002°31'0 0.0
2018-Feb-20 14:59N 47°18' W 002°31'12 0.9
2018-Feb-20 01:48N 47°08' W 002°41'3 9.2
2018-Feb-20 01:30N 47°11' W 002°39'5 9.3
2018-Feb-20 00:58N 47°15' W 002°36'5 9.5
2018-Feb-20 00:29N 47°19' W 002°32'1 2.6
2018-Feb-20 00:00N 47°18' W 002°31'0 0.0
2018-Feb-19 23:30N 47°18' W 002°31'0 0.0
2018-Feb-19 23:00N 47°18' W 002°31'0 0.0
2018-Feb-19 22:29N 47°18' W 002°31'0 0.0
2018-Feb-19 21:59N 47°18' W 002°31'0 0.0
2018-Feb-19 21:28N 47°18' W 002°31'0 0.0
2018-Feb-19 21:00N 47°18' W 002°31'0 0.0
2018-Feb-19 20:29N 47°18' W 002°31'0 0.0
2018-Feb-19 20:00N 47°18' W 002°31'0 0.0
2018-Feb-19 19:30N 47°18' W 002°31'0 0.0
2018-Feb-19 19:00N 47°18' W 002°31'0 0.0
2018-Feb-19 18:29N 47°18' W 002°31'0 0.0
2018-Feb-19 18:00N 47°18' W 002°31'0 0.0
2018-Feb-19 17:30N 47°18' W 002°31'0 0.0
2018-Feb-19 17:00N 47°18' W 002°31'0 0.0
2018-Feb-19 16:30N 47°18' W 002°31'0 0.0
2018-Feb-19 16:00N 47°18' W 002°31'0 0.0
2018-Feb-19 15:28N 47°18' W 002°31'0 0.0
2018-Feb-19 14:59N 47°18' W 002°31'0 0.0
2018-Feb-19 14:30N 47°18' W 002°31'0 0.1
2018-Feb-19 14:00N 47°18' W 002°31'11 0.9
2018-Feb-19 01:45N 47°09' W 002°41'2 8.4
2018-Feb-19 01:29N 47°11' W 002°39'4 9.0
2018-Feb-19 01:00N 47°15' W 002°36'5 9.1
2018-Feb-19 00:30N 47°19' W 002°32'1 2.5
2018-Feb-19 00:00N 47°18' W 002°31'0 0.0
2018-Feb-18 23:30N 47°18' W 002°31'0 0.0
2018-Feb-18 23:00N 47°18' W 002°31'0 0.0
2018-Feb-18 22:29N 47°18' W 002°31'0 0.0
2018-Feb-18 22:00N 47°18' W 002°31'0 0.0
2018-Feb-18 21:30N 47°18' W 002°31'0 0.0
2018-Feb-18 20:59N 47°18' W 002°31'0 0.0
2018-Feb-18 20:30N 47°18' W 002°31'0 0.0
2018-Feb-17 23:45N 47°18' W 002°31'0 0.0
2018-Feb-17 23:11N 47°18' W 002°31'0 0.0
2018-Feb-17 22:58N 47°18' W 002°31'0 0.0
2018-Feb-17 22:30N 47°18' W 002°31'0 0.0
2018-Feb-17 21:58N 47°18' W 002°31'0 0.0
2018-Feb-17 21:30N 47°18' W 002°31'0 0.0
2018-Feb-17 21:00N 47°18' W 002°31'0 0.0
2018-Feb-17 20:29N 47°18' W 002°31'0 0.0
2018-Feb-17 20:00N 47°18' W 002°31'0 0.0
2018-Feb-17 19:29N 47°18' W 002°31'0 0.0
2018-Feb-17 19:00N 47°18' W 002°31'0 0.0
2018-Feb-17 18:27N 47°18' W 002°31'0 0.0
2018-Feb-17 17:58N 47°18' W 002°31'0 0.0
2018-Feb-17 17:29N 47°18' W 002°31'0 0.0
2018-Feb-17 17:00N 47°18' W 002°31'0 0.0
2018-Feb-17 16:30N 47°18' W 002°31'0 0.0
2018-Feb-17 16:00N 47°18' W 002°31'0 0.0
2018-Feb-17 15:30N 47°18' W 002°31'0 0.0
2018-Feb-17 15:00N 47°18' W 002°31'0 0.0
2018-Feb-17 14:30N 47°18' W 002°31'0 0.1
2018-Feb-17 14:00N 47°18' W 002°31'0 0.0
2018-Feb-16 22:47N 47°18' W 002°31'0 0.0
2018-Feb-16 22:29N 47°18' W 002°31'0 0.0
2018-Feb-16 22:00N 47°18' W 002°31'0 0.0
2018-Feb-16 21:30N 47°18' W 002°31'0 0.0
2018-Feb-16 21:00N 47°18' W 002°31'0 0.0
2018-Feb-16 20:30N 47°18' W 002°31'0 0.0
2018-Feb-16 20:00N 47°18' W 002°31'0 0.9
2018-Feb-16 19:30N 47°18' W 002°31'12 7.8
2018-Feb-16 18:02N 47°08' W 002°38'16 1.7
2018-Feb-16 09:07N 46°55' W 002°50'0 0.5
2018-Feb-16 08:45N 46°54' W 002°50'0 0.5
2018-Feb-16 08:08N 46°54' W 002°50'0 0.3
2018-Feb-16 06:44N 46°54' W 002°50'0 0.7
2018-Feb-16 06:30N 46°54' W 002°49'2 2.0
2018-Feb-16 05:25N 46°54' W 002°46'0 0.6
2018-Feb-16 04:35N 46°54' W 002°46'10 4.6
2018-Feb-16 02:31N 47°03' W 002°40'1 8.8
2018-Feb-16 02:27N 47°03' W 002°40'4 8.8
2018-Feb-16 01:59N 47°07' W 002°38'4 8.5
2018-Feb-16 01:29N 47°11' W 002°37'4 8.6
2018-Feb-16 01:00N 47°15' W 002°35'4 8.0
2018-Feb-16 00:30N 47°19' W 002°32'1 2.0
2018-Feb-16 00:00N 47°18' W 002°31'0 0.0
2018-Feb-15 23:30N 47°18' W 002°31'0 0.0
2018-Feb-15 23:00N 47°18' W 002°31'0 0.0
2018-Feb-15 22:30N 47°18' W 002°31'0 0.0
2018-Feb-15 22:00N 47°18' W 002°31'0 0.0
2018-Feb-15 21:30N 47°18' W 002°31'0 0.0
2018-Feb-15 21:00N 47°18' W 002°31'0 0.0
2018-Feb-15 20:30N 47°18' W 002°31'0 0.0
2018-Feb-15 20:00N 47°18' W 002°31'0 0.0
2018-Feb-15 19:30N 47°18' W 002°31'0 0.0
2018-Feb-15 19:00N 47°18' W 002°31'0 0.0
2018-Feb-15 18:30N 47°18' W 002°31'0 0.0
2018-Feb-15 18:00N 47°18' W 002°31'0 0.0
2018-Feb-15 17:30N 47°18' W 002°31'0 0.0
2018-Feb-15 17:00N 47°18' W 002°31'0 0.0
2018-Feb-15 16:29N 47°18' W 002°31'0 0.0
2018-Feb-15 16:00N 47°18' W 002°31'0 0.0
2018-Feb-15 15:30N 47°18' W 002°31'0 0.0
2018-Feb-15 15:00N 47°18' W 002°31'0 0.0
2018-Feb-15 14:30N 47°18' W 002°31'6 6.1
2018-Feb-15 13:30N 47°13' W 002°36'5 9.5
2018-Feb-15 12:59N 47°08' W 002°38'5 0.4
2018-Feb-15 01:47N 47°11' W 002°43'2 7.9
2018-Feb-15 01:29N 47°13' W 002°41'4 8.2
2018-Feb-15 00:58N 47°16' W 002°37'4 8.0
2018-Feb-15 00:31N 47°18' W 002°33'9 0.2
2018-Feb-13 13:37N 47°12' W 002°41'2 8.3
2018-Feb-13 13:25N 47°13' W 002°40'5 8.8
2018-Feb-13 12:54N 47°17' W 002°36'3 3.3
2018-Feb-13 11:54N 47°18' W 002°31'0 0.0
2018-Feb-13 11:02N 47°18' W 002°31'0 0.0
2018-Feb-13 05:13N 47°18' W 002°31'0 0.0
2018-Feb-13 05:00N 47°18' W 002°31'0 0.0
2018-Feb-13 04:29N 47°18' W 002°31'0 0.0
2018-Feb-13 04:00N 47°18' W 002°31'0 0.0
2018-Feb-13 03:29N 47°18' W 002°31'0 0.0
2018-Feb-13 02:59N 47°18' W 002°31'0 0.0
2018-Feb-13 02:29N 47°18' W 002°31'  

Dump ship's entire track history